Sea Success — VRS4325 — position and weather

sailwx.info

Track history (hours):
 
Tides and Currents Weather Stations Pressure Air Temp Water Temp Dewpoint Dewpoint Depression Visibility Wind Speed Wind Dir Waves Ship Positions

Sea Success

Last reported at 2014-Oct-14 02:25 UTC. Time now 2014-Oct-23 00:02 UTC.
Position N 22°19' E 114°09'.
Warning: this ship's position is 8 days out of date.

Length 27 m.

Type: High speed craft. MMSI: 477995071.

Date/timePositionNaut miles runAvg speedWind from/ knotsBaromVisibWave heightAir tempDewpointWater temp
2014-Oct-14 02:25N 22°19' E 114°09'  
2014-Oct-10 06:30N 22°18' E 114°09'1 0.9
2014-Oct-10 05:08N 22°18' E 114°08'1 1.7
2014-Oct-10 04:24N 22°17' E 114°10'1 1.0
2014-Oct-10 03:08N 22°18' E 114°08'1 2.2
2014-Oct-10 02:33N 22°17' E 114°10'1 0.9
2014-Oct-10 01:04N 22°18' E 114°08'1 0.5
2014-Oct-09 23:33N 22°17' E 114°09'1 0.8
2014-Oct-09 22:18N 22°18' E 114°08'0 0.0
2014-Oct-09 13:25N 22°18' E 114°08'2 0.9
2014-Oct-09 11:33N 22°17' E 114°10'2 1.2
2014-Oct-09 10:11N 22°18' E 114°08'1 2.0
2014-Oct-09 09:33N 22°18' E 114°09'1 0.7
2014-Oct-09 08:33N 22°17' E 114°10'0 0.1
2014-Oct-09 05:33N 22°17' E 114°10'0 0.0
2014-Oct-09 02:33N 22°17' E 114°10'2 1.2
2014-Oct-09 01:09N 22°18' E 114°08'2 1.0
2014-Oct-08 23:33N 22°17' E 114°10'2 1.8
2014-Oct-08 22:20N 22°18' E 114°07'0 0.0
2014-Oct-08 13:25N 22°18' E 114°08'2 1.0
2014-Oct-08 11:33N 22°17' E 114°10'2 1.3
2014-Oct-08 10:10N 22°18' E 114°08'2 2.8
2014-Oct-08 09:33N 22°17' E 114°09'0 0.5
2014-Oct-08 08:33N 22°18' E 114°09'1 0.2
2014-Oct-08 05:33N 22°17' E 114°10'0 0.0
2014-Oct-08 02:33N 22°17' E 114°10'2 1.5
2014-Oct-08 01:08N 22°18' E 114°07'2 1.3
2014-Oct-07 23:33N 22°17' E 114°10'2 1.4
2014-Oct-07 22:23N 22°18' E 114°08'0 0.0
2014-Oct-07 13:26N 22°18' E 114°08'2 1.0
2014-Oct-07 11:33N 22°17' E 114°10'2 1.8
2014-Oct-07 10:11N 22°18' E 114°07'2 3.5
2014-Oct-07 09:32N 22°19' E 114°09'2 1.6
2014-Oct-07 08:33N 22°17' E 114°10'0 0.0
2014-Oct-07 05:33N 22°17' E 114°10'0 0.0
2014-Oct-07 02:33N 22°17' E 114°10'1 1.0
2014-Oct-07 01:09N 22°18' E 114°08'1 0.7
2014-Oct-06 23:33N 22°17' E 114°09'1 1.1
2014-Oct-06 22:29N 22°18' E 114°08'0 0.0
2014-Oct-06 13:24N 22°18' E 114°08'2 0.9
2014-Oct-06 11:33N 22°17' E 114°10'1 1.0
2014-Oct-06 10:09N 22°18' E 114°08'2 2.6
2014-Oct-06 09:33N 22°19' E 114°09'2 1.6
2014-Oct-06 08:33N 22°17' E 114°10'0 0.0
2014-Oct-06 05:33N 22°17' E 114°10'0 0.0
2014-Oct-06 02:29N 22°17' E 114°10'1 1.1
2014-Oct-06 01:07N 22°18' E 114°08'1 0.9
2014-Oct-05 23:32N 22°17' E 114°10'2 1.3
2014-Oct-05 22:18N 22°18' E 114°08'0 0.0
2014-Oct-05 12:31N 22°18' E 114°07'2 1.0
2014-Oct-05 10:33N 22°17' E 114°10'2 1.1
2014-Oct-05 09:09N 22°18' E 114°08'1 1.5
2014-Oct-05 08:16N 22°17' E 114°09'0 0.1
2014-Oct-05 06:32N 22°17' E 114°10'1 1.0
2014-Oct-05 05:32N 22°18' E 114°09'2 1.1
2014-Oct-05 04:10N 22°18' E 114°08'1 1.7
2014-Oct-05 03:34N 22°18' E 114°09'1 1.1
2014-Oct-05 02:30N 22°18' E 114°08'2 1.8
2014-Oct-05 01:33N 22°18' E 114°09'0 0.0
2014-Oct-05 00:34N 22°18' E 114°09'1 0.9
2014-Oct-04 23:19N 22°19' E 114°09'2 0.2
2014-Oct-04 13:23N 22°18' E 114°08'2 0.8
2014-Oct-04 11:32N 22°17' E 114°10'2 1.2
2014-Oct-04 10:10N 22°18' E 114°08'2 1.1
2014-Oct-04 08:33N 22°17' E 114°10'0 0.0
2014-Oct-04 05:33N 22°17' E 114°10'0 0.0
2014-Oct-04 02:34N 22°17' E 114°10'  
Track history (hours):
 
Tides and Currents Weather Stations Pressure Air Temp Water Temp Dewpoint Dewpoint Depression Visibility Wind Speed Wind Dir Waves Ship Positions

Sea Success

Last reported at 2014-Oct-14 02:25 UTC. Time now 2014-Oct-23 00:02 UTC.
Position N 22°19' E 114°09'.
Warning: this ship's position is 8 days out of date.

Length 27 m.

Type: High speed craft. MMSI: 477995071.

Date/timePositionNaut miles runAvg speedWind from/ knotsBaromVisibWave heightAir tempDewpointWater temp
2014-Oct-14 02:25N 22°19' E 114°09'  
2014-Oct-10 06:30N 22°18' E 114°09'1 0.9
2014-Oct-10 05:08N 22°18' E 114°08'1 1.7
2014-Oct-10 04:24N 22°17' E 114°10'1 1.0
2014-Oct-10 03:08N 22°18' E 114°08'1 2.2
2014-Oct-10 02:33N 22°17' E 114°10'1 0.9
2014-Oct-10 01:04N 22°18' E 114°08'1 0.5
2014-Oct-09 23:33N 22°17' E 114°09'1 0.8
2014-Oct-09 22:18N 22°18' E 114°08'0 0.0
2014-Oct-09 13:25N 22°18' E 114°08'2 0.9
2014-Oct-09 11:33N 22°17' E 114°10'2 1.2
2014-Oct-09 10:11N 22°18' E 114°08'1 2.0
2014-Oct-09 09:33N 22°18' E 114°09'1 0.7
2014-Oct-09 08:33N 22°17' E 114°10'0 0.1
2014-Oct-09 05:33N 22°17' E 114°10'0 0.0
2014-Oct-09 02:33N 22°17' E 114°10'2 1.2
2014-Oct-09 01:09N 22°18' E 114°08'2 1.0
2014-Oct-08 23:33N 22°17' E 114°10'2 1.8
2014-Oct-08 22:20N 22°18' E 114°07'0 0.0
2014-Oct-08 13:25N 22°18' E 114°08'2 1.0
2014-Oct-08 11:33N 22°17' E 114°10'2 1.3
2014-Oct-08 10:10N 22°18' E 114°08'2 2.8
2014-Oct-08 09:33N 22°17' E 114°09'0 0.5
2014-Oct-08 08:33N 22°18' E 114°09'1 0.2
2014-Oct-08 05:33N 22°17' E 114°10'0 0.0
2014-Oct-08 02:33N 22°17' E 114°10'2 1.5
2014-Oct-08 01:08N 22°18' E 114°07'2 1.3
2014-Oct-07 23:33N 22°17' E 114°10'2 1.4
2014-Oct-07 22:23N 22°18' E 114°08'0 0.0
2014-Oct-07 13:26N 22°18' E 114°08'2 1.0
2014-Oct-07 11:33N 22°17' E 114°10'2 1.8
2014-Oct-07 10:11N 22°18' E 114°07'2 3.5
2014-Oct-07 09:32N 22°19' E 114°09'2 1.6
2014-Oct-07 08:33N 22°17' E 114°10'0 0.0
2014-Oct-07 05:33N 22°17' E 114°10'0 0.0
2014-Oct-07 02:33N 22°17' E 114°10'1 1.0
2014-Oct-07 01:09N 22°18' E 114°08'1 0.7
2014-Oct-06 23:33N 22°17' E 114°09'1 1.1
2014-Oct-06 22:29N 22°18' E 114°08'0 0.0
2014-Oct-06 13:24N 22°18' E 114°08'2 0.9
2014-Oct-06 11:33N 22°17' E 114°10'1 1.0
2014-Oct-06 10:09N 22°18' E 114°08'2 2.6
2014-Oct-06 09:33N 22°19' E 114°09'2 1.6
2014-Oct-06 08:33N 22°17' E 114°10'0 0.0
2014-Oct-06 05:33N 22°17' E 114°10'0 0.0
2014-Oct-06 02:29N 22°17' E 114°10'1 1.1
2014-Oct-06 01:07N 22°18' E 114°08'1 0.9
2014-Oct-05 23:32N 22°17' E 114°10'2 1.3
2014-Oct-05 22:18N 22°18' E 114°08'0 0.0
2014-Oct-05 12:31N 22°18' E 114°07'2 1.0
2014-Oct-05 10:33N 22°17' E 114°10'2 1.1
2014-Oct-05 09:09N 22°18' E 114°08'1 1.5
2014-Oct-05 08:16N 22°17' E 114°09'0 0.1
2014-Oct-05 06:32N 22°17' E 114°10'1 1.0
2014-Oct-05 05:32N 22°18' E 114°09'2 1.1
2014-Oct-05 04:10N 22°18' E 114°08'1 1.7
2014-Oct-05 03:34N 22°18' E 114°09'1 1.1
2014-Oct-05 02:30N 22°18' E 114°08'2 1.8
2014-Oct-05 01:33N 22°18' E 114°09'0 0.0
2014-Oct-05 00:34N 22°18' E 114°09'1 0.9
2014-Oct-04 23:19N 22°19' E 114°09'2 0.2
2014-Oct-04 13:23N 22°18' E 114°08'2 0.8
2014-Oct-04 11:32N 22°17' E 114°10'2 1.2
2014-Oct-04 10:10N 22°18' E 114°08'2 1.1
2014-Oct-04 08:33N 22°17' E 114°10'0 0.0
2014-Oct-04 05:33N 22°17' E 114°10'0 0.0
2014-Oct-04 02:34N 22°17' E 114°10'  

Dump ship's entire track history